Time,TemperatureF,DewpointF,PressureIn,WindDirection,WindDirectionDegrees,WindSpeedMPH,WindSpeedGustMPH,Humidity,HourlyPrecipIn,Conditions,Clouds,dailyrainin,SoftwareType,DateUTC
2013-02-06 00:08:00,34.3,33.8,29.84,WSW,247,1.6,-999.0,98,-99.99,,,0.00,Acu-Link.com,2013-02-06 05:08:00,
2013-02-06 00:24:00,34.5,34.0,29.84,West,270,0.0,-999.0,98,-99.99,,,0.00,Acu-Link.com,2013-02-06 05:24:00,
2013-02-06 00:39:00,34.9,34.6,29.84,WSW,247,2.2,-999.0,99,-99.99,,,0.00,Acu-Link.com,2013-02-06 05:39:00,
2013-02-06 00:54:00,34.7,34.4,29.83,SW,225,0.0,-999.0,99,-99.99,,,0.00,Acu-Link.com,2013-02-06 05:54:00,
2013-02-06 01:09:00,34.5,34.3,29.84,WSW,247,0.0,-999.0,99,-99.99,,,0.00,Acu-Link.com,2013-02-06 06:09:00,
2013-02-06 01:24:00,34.5,34.3,29.83,WSW,247,0.0,-999.0,99,-99.99,,,0.00,Acu-Link.com,2013-02-06 06:24:00,
2013-02-06 01:40:00,34.2,33.9,29.84,NNE,22,0.0,-999.0,99,-99.99,,,0.00,Acu-Link.com,2013-02-06 06:40:00,
2013-02-06 01:55:00,34.2,33.9,29.83,NW,315,0.0,-999.0,99,-99.99,,,0.00,Acu-Link.com,2013-02-06 06:55:00,
2013-02-06 02:10:00,34.2,33.9,29.83,NNW,337,2.2,-999.0,99,-99.99,,,0.00,Acu-Link.com,2013-02-06 07:10:00,
2013-02-06 02:25:00,34.0,33.7,29.84,South,180,1.6,-999.0,99,-99.99,,,0.00,Acu-Link.com,2013-02-06 07:25:00,
2013-02-06 02:40:00,33.6,33.4,29.83,East,90,2.7,-999.0,99,-99.99,,,0.00,Acu-Link.com,2013-02-06 07:40:00,
2013-02-06 02:56:00,33.4,33.2,29.83,SSE,157,3.8,-999.0,99,-99.99,,,0.00,Acu-Link.com,2013-02-06 07:56:00,
2013-02-06 03:11:00,33.1,32.8,29.84,WNW,292,2.7,-999.0,99,-99.99,,,0.00,Acu-Link.com,2013-02-06 08:11:00,
2013-02-06 03:26:00,36.7,36.4,29.84,West,270,2.2,-999.0,99,-99.99,,,0.00,Acu-Link.com,2013-02-06 08:26:00,
2013-02-06 03:41:00,35.1,34.8,29.83,South,180,2.7,-999.0,99,-99.99,,,0.00,Acu-Link.com,2013-02-06 08:41:00,
2013-02-06 03:57:00,32.9,32.7,29.84,SSW,202,3.1,-999.0,99,-99.99,,,0.00,Acu-Link.com,2013-02-06 08:57:00,
2013-02-06 04:12:00,32.7,32.5,29.85,WNW,292,2.2,-999.0,99,-99.99,,,0.00,Acu-Link.com,2013-02-06 09:12:00,
2013-02-06 04:27:00,33.3,33.0,29.85,West,270,0.0,-999.0,99,-99.99,,,0.00,Acu-Link.com,2013-02-06 09:27:00,
2013-02-06 04:42:00,34.2,33.9,29.85,ESE,112,1.6,-999.0,99,-99.99,,,0.00,Acu-Link.com,2013-02-06 09:42:00,
2013-02-06 04:57:00,33.6,33.4,29.86,ESE,112,1.1,-999.0,99,-99.99,,,0.00,Acu-Link.com,2013-02-06 09:57:00,
2013-02-06 05:13:00,32.9,32.7,29.87,South,180,0.0,-999.0,99,-99.99,,,0.00,Acu-Link.com,2013-02-06 10:13:00,
2013-02-06 05:28:00,32.0,31.8,29.87,West,270,0.0,-999.0,99,-99.99,,,0.00,Acu-Link.com,2013-02-06 10:28:00,
2013-02-06 05:43:00,32.0,31.8,29.87,North,0,1.1,-999.0,99,-99.99,,,0.00,Acu-Link.com,2013-02-06 10:43:00,
2013-02-06 05:58:00,32.4,32.1,29.88,SW,225,0.0,-999.0,99,-99.99,,,0.00,Acu-Link.com,2013-02-06 10:58:00,
2013-02-06 06:13:00,32.4,32.1,29.89,NNE,22,1.6,-999.0,99,-99.99,,,0.00,Acu-Link.com,2013-02-06 11:13:00,
2013-02-06 06:29:00,32.0,31.8,29.90,NW,315,1.6,-999.0,99,-99.99,,,0.00,Acu-Link.com,2013-02-06 11:29:00,
2013-02-06 06:44:00,32.0,31.8,29.90,South,180,0.0,-999.0,99,-99.99,,,0.00,Acu-Link.com,2013-02-06 11:44:00,
2013-02-06 06:59:00,31.3,31.0,29.90,SSW,202,1.6,-999.0,99,-99.99,,,0.00,Acu-Link.com,2013-02-06 11:59:00,
2013-02-06 07:14:00,30.7,30.5,29.91,ESE,112,0.0,-999.0,99,-99.99,,,0.00,Acu-Link.com,2013-02-06 12:14:00,
2013-02-06 07:29:00,30.4,30.1,29.92,West,270,1.6,-999.0,99,-99.99,,,0.00,Acu-Link.com,2013-02-06 12:29:00,
2013-02-06 07:45:00,30.6,30.3,29.92,West,270,0.0,-999.0,99,-99.99,,,0.00,Acu-Link.com,2013-02-06 12:45:00,
2013-02-06 08:00:00,30.7,30.5,29.93,West,270,0.0,-999.0,99,-99.99,,,0.00,Acu-Link.com,2013-02-06 13:00:00,
2013-02-06 08:15:00,30.7,30.5,29.93,ENE,67,1.1,-999.0,99,-99.99,,,0.00,Acu-Link.com,2013-02-06 13:15:00,
2013-02-06 08:30:00,32.4,32.1,29.93,ENE,67,0.0,-999.0,99,-99.99,,,0.00,Acu-Link.com,2013-02-06 13:30:00,
2013-02-06 08:45:00,32.7,32.2,29.94,SW,225,0.0,-999.0,98,-99.99,,,0.00,Acu-Link.com,2013-02-06 13:45:00,
2013-02-06 09:01:00,34.9,34.4,29.94,ENE,67,0.0,-999.0,98,-99.99,,,0.00,Acu-Link.com,2013-02-06 14:01:00,
2013-02-06 09:16:00,34.9,33.6,29.95,ENE,67,1.6,-999.0,95,-99.99,,,0.00,Acu-Link.com,2013-02-06 14:16:00,
2013-02-06 09:31:00,38.3,35.3,29.94,SSW,202,0.0,-999.0,89,-99.99,,,0.00,Acu-Link.com,2013-02-06 14:31:00,
2013-02-06 09:46:00,39.2,37.3,29.95,ENE,67,0.0,-999.0,93,-99.99,,,0.00,Acu-Link.com,2013-02-06 14:46:00,
2013-02-06 10:01:00,41.0,38.9,29.96,ENE,67,2.2,-999.0,92,-99.99,,,0.00,Acu-Link.com,2013-02-06 15:01:00,
2013-02-06 10:17:00,43.3,40.0,29.96,ENE,67,2.2,-999.0,88,-99.99,,,0.00,Acu-Link.com,2013-02-06 15:17:00,
2013-02-06 10:32:00,44.2,39.4,29.96,ENE,67,1.6,-999.0,83,-99.99,,,0.00,Acu-Link.com,2013-02-06 15:32:00,
2013-02-06 10:47:00,46.8,40.6,29.97,ENE,67,2.2,-999.0,79,-99.99,,,0.00,Acu-Link.com,2013-02-06 15:47:00,
2013-02-06 11:02:00,49.8,39.7,29.98,ENE,67,2.2,-999.0,68,-99.99,,,0.00,Acu-Link.com,2013-02-06 16:02:00,
2013-02-06 11:17:00,52.2,37.4,29.98,NE,45,2.7,-999.0,57,-99.99,,,0.00,Acu-Link.com,2013-02-06 16:17:00,
2013-02-06 11:33:00,53.8,32.4,29.98,ENE,67,3.8,-999.0,44,-99.99,,,0.00,Acu-Link.com,2013-02-06 16:33:00,
2013-02-06 11:48:00,55.0,30.5,29.97,ENE,67,5.8,-999.0,39,-99.99,,,0.00,Acu-Link.com,2013-02-06 16:48:00,
2013-02-06 12:03:00,55.4,28.9,29.96,NE,45,5.8,-999.0,36,-99.99,,,0.00,Acu-Link.com,2013-02-06 17:03:00,
2013-02-06 12:18:00,56.3,29.0,29.96,East,90,5.8,-999.0,35,-99.99,,,0.00,Acu-Link.com,2013-02-06 17:18:00,
2013-02-06 12:33:00,56.5,28.5,29.97,East,90,5.1,-999.0,34,-99.99,,,0.00,Acu-Link.com,2013-02-06 17:33:00,
2013-02-06 12:49:00,55.9,24.2,29.96,South,180,2.7,-999.0,29,-99.99,,,0.00,Acu-Link.com,2013-02-06 17:49:00,
2013-02-06 13:04:00,57.6,26.4,29.96,NNW,337,4.7,-999.0,30,-99.99,,,0.00,Acu-Link.com,2013-02-06 18:04:00,
2013-02-06 13:19:00,57.2,26.1,29.95,ENE,67,5.1,-999.0,30,-99.99,,,0.00,Acu-Link.com,2013-02-06 18:19:00,
2013-02-06 13:34:00,56.7,26.4,29.95,East,90,4.3,-999.0,31,-99.99,,,0.00,Acu-Link.com,2013-02-06 18:34:00,
2013-02-06 13:50:00,57.7,28.1,29.94,NNW,337,4.7,-999.0,32,-99.99,,,0.00,Acu-Link.com,2013-02-06 18:50:00,
2013-02-06 14:05:00,57.9,28.2,29.94,East,90,6.3,-999.0,32,-99.99,,,0.00,Acu-Link.com,2013-02-06 19:05:00,
2013-02-06 14:21:00,57.6,27.2,29.93,ESE,112,4.7,-999.0,31,-99.99,,,0.00,Acu-Link.com,2013-02-06 19:21:00,
2013-02-06 14:36:00,56.8,25.7,29.93,East,90,4.7,-999.0,30,-99.99,,,0.00,Acu-Link.com,2013-02-06 19:36:00,
2013-02-06 14:51:00,57.2,28.4,29.93,NE,45,2.7,-999.0,33,-99.99,,,0.00,Acu-Link.com,2013-02-06 19:51:00,
2013-02-06 15:07:00,57.6,25.6,29.92,NNE,22,3.8,-999.0,29,-99.99,,,0.00,Acu-Link.com,2013-02-06 20:07:00,
2013-02-06 15:22:00,56.7,26.4,29.92,ESE,112,4.3,-999.0,31,-99.99,,,0.00,Acu-Link.com,2013-02-06 20:22:00,
2013-02-06 15:37:00,56.3,26.1,29.93,SW,225,3.1,-999.0,31,-99.99,,,0.00,Acu-Link.com,2013-02-06 20:37:00,
2013-02-06 15:52:00,55.6,28.4,29.93,SE,135,0.0,-999.0,35,-99.99,,,0.00,Acu-Link.com,2013-02-06 20:52:00,
2013-02-06 16:07:00,54.9,29.1,29.93,WSW,247,2.7,-999.0,37,-99.99,,,0.00,Acu-Link.com,2013-02-06 21:07:00,
2013-02-06 16:23:00,54.1,27.8,29.94,NE,45,2.2,-999.0,36,-99.99,,,0.00,Acu-Link.com,2013-02-06 21:23:00,
2013-02-06 16:38:00,53.2,27.0,29.93,West,270,1.1,-999.0,36,-99.99,,,0.00,Acu-Link.com,2013-02-06 21:38:00,
2013-02-06 16:53:00,53.1,26.1,29.92,NW,315,1.6,-999.0,35,-99.99,,,0.00,Acu-Link.com,2013-02-06 21:53:00,
2013-02-06 17:08:00,52.3,25.5,29.92,West,270,2.2,-999.0,35,-99.99,,,0.00,Acu-Link.com,2013-02-06 22:08:00,
2013-02-06 17:24:00,52.0,25.9,29.93,West,270,2.7,-999.0,36,-99.99,,,0.00,Acu-Link.com,2013-02-06 22:24:00,
2013-02-06 17:39:00,51.3,26.5,29.93,West,270,2.7,-999.0,38,-99.99,,,0.18,Acu-Link.com,2013-02-06 22:39:00,
2013-02-06 17:54:00,50.7,29.0,29.93,WSW,247,2.7,-999.0,43,-99.99,,,0.18,Acu-Link.com,2013-02-06 22:54:00,
2013-02-06 18:09:00,47.8,31.5,29.93,WSW,247,2.2,-999.0,53,-99.99,,,0.18,Acu-Link.com,2013-02-06 23:09:00,
2013-02-06 18:24:00,46.0,30.8,29.93,SSW,202,0.0,-999.0,55,-99.99,,,0.18,Acu-Link.com,2013-02-06 23:24:00,
2013-02-06 18:40:00,44.4,29.7,29.93,SW,225,2.2,-999.0,56,-99.99,,,0.18,Acu-Link.com,2013-02-06 23:40:00,
2013-02-06 18:55:00,43.5,29.3,29.92,WSW,247,0.0,-999.0,57,-99.99,,,0.18,Acu-Link.com,2013-02-06 23:55:00,
2013-02-06 19:10:00,42.8,25.9,29.92,WNW,292,0.0,-999.0,51,-99.99,,,0.18,Acu-Link.com,2013-02-07 00:10:00,
2013-02-06 19:25:00,41.9,30.6,29.93,WSW,247,1.1,-999.0,64,-99.99,,,0.18,Acu-Link.com,2013-02-07 00:25:00,
2013-02-06 19:40:00,41.2,29.9,29.93,SW,225,0.0,-999.0,64,-99.99,,,0.18,Acu-Link.com,2013-02-07 00:40:00,
2013-02-06 19:56:00,41.0,28.6,29.93,SW,225,1.6,-999.0,61,-99.99,,,0.18,Acu-Link.com,2013-02-07 00:56:00,
2013-02-06 20:11:00,40.8,28.4,29.93,NNW,337,0.0,-999.0,61,-99.99,,,0.18,Acu-Link.com,2013-02-07 01:11:00,
2013-02-06 20:26:00,40.1,29.7,29.95,WSW,247,1.6,-999.0,66,-99.99,,,0.18,Acu-Link.com,2013-02-07 01:26:00,
2013-02-06 20:41:00,39.6,29.2,29.97,WSW,247,2.2,-999.0,66,-99.99,,,0.18,Acu-Link.com,2013-02-07 01:41:00,
2013-02-06 20:56:00,39.2,28.1,29.97,SW,225,0.0,-999.0,64,-99.99,,,0.18,Acu-Link.com,2013-02-07 01:56:00,
2013-02-06 21:12:00,39.2,29.2,29.96,South,180,2.7,-999.0,67,-99.99,,,0.18,Acu-Link.com,2013-02-07 02:12:00,
2013-02-06 21:27:00,38.7,26.8,29.97,West,270,1.6,-999.0,62,-99.99,,,0.18,Acu-Link.com,2013-02-07 02:27:00,
2013-02-06 21:42:00,39.0,27.9,29.97,WSW,247,2.2,-999.0,64,-99.99,,,0.18,Acu-Link.com,2013-02-07 02:42:00,
2013-02-06 21:57:00,38.1,27.8,29.96,West,270,0.0,-999.0,66,-99.99,,,0.18,Acu-Link.com,2013-02-07 02:57:00,
2013-02-06 22:13:00,37.4,28.2,29.96,SSW,202,0.0,-999.0,69,-99.99,,,0.18,Acu-Link.com,2013-02-07 03:13:00,
2013-02-06 22:28:00,36.9,28.4,29.96,SW,225,1.6,-999.0,71,-99.99,,,0.18,Acu-Link.com,2013-02-07 03:28:00,
2013-02-06 22:43:00,37.0,28.2,29.96,SW,225,0.0,-999.0,70,-99.99,,,0.18,Acu-Link.com,2013-02-07 03:43:00,
2013-02-06 22:58:00,37.0,28.5,29.96,NNW,337,0.0,-999.0,71,-99.99,,,0.18,Acu-Link.com,2013-02-07 03:58:00,
2013-02-06 23:13:00,36.9,27.7,29.95,WSW,247,0.0,-999.0,69,-99.99,,,0.18,Acu-Link.com,2013-02-07 04:13:00,
2013-02-06 23:29:00,36.5,27.7,29.95,WSW,247,0.0,-999.0,70,-99.99,,,0.18,Acu-Link.com,2013-02-07 04:29:00,
2013-02-06 23:44:00,36.1,27.7,29.95,NW,315,0.0,-999.0,71,-99.99,,,0.18,Acu-Link.com,2013-02-07 04:44:00,
2013-02-06 23:59:00,36.0,28.2,29.95,WSW,247,2.7,-999.0,73,-99.99,,,0.18,Acu-Link.com,2013-02-07 04:59:00,